This is the latest recevied weather packets stored in our database for station/object K5GTX. If no packets are shown the sender has not sent any weather packets the latest 1 day(s).
| Time | Temp. | Humidity | Pressure | Rain* | Wind** | Luminosity | Snow |
|---|---|---|---|---|---|---|---|
| 1778010292 | 30.56° C | 99% | 1011.1 hPa | 0 mm | 1.34 m/s, 262° | 613 W/m² | - |
| 1778010001 | 30° C | 99% | 1011.2 hPa | 0 mm | 0 m/s | 593 W/m² | - |
| 1778009690 | 30° C | 99% | 1010.9 hPa | 0 mm | 2.24 m/s, 236° | 389 W/m² | - |
| 1778009387 | 30.56° C | 99% | 1010.8 hPa | 0 mm | 1.79 m/s, 158° | 625 W/m² | - |
| 1778009086 | 30° C | 99% | 1011 hPa | 0 mm | 4.02 m/s, 242° | 613 W/m² | - |
| 1778008783 | 30° C | 99% | 1010.8 hPa | 0 mm | 1.79 m/s, 250° | 646 W/m² | - |
| 1778008482 | 30° C | 99% | 1010.7 hPa | 0 mm | 1.79 m/s, 137° | 569 W/m² | - |
| 1778008178 | 29.44° C | 99% | 1010.9 hPa | 0 mm | 1.79 m/s, 241° | 521 W/m² | - |
| 1778007873 | 29.44° C | 99% | 1011 hPa | 0 mm | 2.24 m/s, 233° | 576 W/m² | - |
| 1778007569 | 29.44° C | 99% | 1011 hPa | 0 mm | 0.89 m/s, 198° | 486 W/m² | - |
| 1778007267 | 28.89° C | 99% | 1011 hPa | 0 mm | 1.79 m/s, 223° | 514 W/m² | - |
| 1778006962 | 28.33° C | 99% | 1011 hPa | 0 mm | 0.89 m/s, 204° | 481 W/m² | - |
| 1778006660 | 28.89° C | 99% | 1011.2 hPa | 0 mm | 0 m/s | 346 W/m² | - |
| 1778006356 | 28.33° C | 99% | 1011.3 hPa | 0 mm | 0.89 m/s, 228° | 327 W/m² | - |
| 1778006053 | 28.33° C | 99% | 1011 hPa | 0 mm | 2.68 m/s, 217° | 322 W/m² | - |
| 1778005750 | 28.33° C | 99% | 1011.2 hPa | 0 mm | 3.13 m/s, 254° | 295 W/m² | - |
| 1778005447 | 28.89° C | 99% | 1011 hPa | 0 mm | 0.89 m/s, 198° | 305 W/m² | - |
| 1778005143 | 28.33° C | 99% | 1011.3 hPa | 0 mm | 0.89 m/s, 180° | 294 W/m² | - |
| 1778004840 | 28.33° C | 99% | 1011.2 hPa | 0 mm | 0.45 m/s, 117° | 275 W/m² | - |
| 1778004537 | 28.33° C | 99% | 1011.4 hPa | 0 mm | 0.89 m/s, 240° | 318 W/m² | - |
| 1778004234 | 27.78° C | 99% | 1011 hPa | 0 mm | 1.34 m/s, 209° | 325 W/m² | - |
| 1778003930 | 28.33° C | 99% | 1011 hPa | 0 mm | 2.24 m/s, 209° | 399 W/m² | - |
| 1778003626 | 28.89° C | 99% | 1011.1 hPa | 0 mm | 2.68 m/s, 258° | 482 W/m² | - |
| 1778003317 | 28.33° C | 99% | 1011.1 hPa | 0 mm | 3.13 m/s, 237° | 492 W/m² | - |
| 1778003015 | 27.78° C | 99% | 1011.4 hPa | 0 mm | 1.34 m/s, 233° | 464 W/m² | - |
* Rain latest hour (hover to see other rain measurements)
** Current wind speed in m/s (hover to see current wind gust speed)